Nearby METAR Reports

 

KBED - Bedford, Massachusetts, USA
Distance from station: ENE 12mi, 20km
Updated: Sat, 03-Dec-2022 10:51pm EST
Clear
Clear
 Wind from W
Wind: W 16 mph , 26 km/h, Gust: 23 mph , 37 km/h
Temperature: 43°F , 6°C
Wind Chill: 35°F , 2°C
Dew Point: 28°F , -2°C
Humidity: 57%
Barometer: 29.97 inHg , 1014.9 hPa
Clouds: Clear
Visibility: 10 miles , 16 km
2022/12/04 03:51 KBED 040351Z 28014G20KT 10SM CLR 06/M02 A2997 RMK AO2 SLP161 T00611017
KFIT - Fitchburg, Massachusetts, USA
Distance from station: NW 15mi, 24km
Updated: Sat, 03-Dec-2022 10:52pm EST
Clear
Clear
 Wind from WNW
Wind: WNW 17 mph , 28 km/h, Gust: 29 mph , 46 km/h
Temperature: 41°F , 5°C
Wind Chill: 33°F , 1°C
Dew Point: 25°F , -4°C
Humidity: 53%
Barometer: 29.99 inHg , 1015.6 hPa
Clouds: Clear
Visibility: 10 miles , 16 km
2022/12/04 03:52 KFIT 040352Z AUTO 29015G25KT 10SM CLR 05/M04 A2999 RMK AO2 SLP157 T00501039
 
KORH - Worcester, Massachusetts, USA
Distance from station: WSW 20mi, 32km
Updated: Sat, 03-Dec-2022 10:54pm EST
Clear
Clear
 Wind from W
Wind: W 17 mph , 28 km/h, Gust: 32 mph , 52 km/h
Temperature: 39°F , 4°C
Wind Chill: 30°F , -1°C
Dew Point: 25°F , -4°C
Humidity: 56%
Barometer: 29.97 inHg , 1014.9 hPa
Clouds: Clear
Visibility: 10 miles , 16 km
2022/12/04 03:54 KORH 040354Z 28015G28KT 10SM CLR 04/M04 A2997 RMK AO2 PK WND 30033/0257 SLP153 T00391039
KOWD - Norwood, Massachusetts, USA
Distance from station: SE 24mi, 39km
Updated: Sat, 03-Dec-2022 10:53pm EST
Clear
Clear
 Wind from W
Wind: W 13 mph , 20 km/h
Temperature: 45°F , 7°C
Wind Chill: 39°F , 4°C
Dew Point: 28°F , -2°C
Humidity: 53%
Barometer: 30.00 inHg , 1015.9 hPa
Clouds: Clear
Visibility: 10 miles , 16 km
2022/12/04 03:53 KOWD 040353Z AUTO 28011KT 10SM CLR 07/M02 A3000 RMK AO2 SLP157 T00721022 $
 
KMQE - East Milton, Massachusetts, USA
Distance from station: ESE 25mi, 40km
Updated: Thu, 01-Jul-2021 9:51am EDT
NOT Current

 Wind from WNW
Wind: WNW 9 mph , 15 km/h
Temperature: 75°F , 24°C
Dew Point: 70°F , 21°C
Humidity: 83%
Barometer: 29.86 inHg , 1011.2 hPa
2021/07/01 13:51 KMQE 011351Z AUTO 30008KT 24/21 A2986 RMK AO1 SLP116 T02440206
KASH - Nashua/Boire Fld, New Hampshire, USA
Distance from station: N 26mi, 42km
Updated: Sat, 03-Dec-2022 10:56pm EST
Clear
Clear
 Wind from W
Wind: W 8 mph , 13 km/h
Temperature: 43°F , 6°C
Wind Chill: 38°F , 3°C
Dew Point: 28°F , -2°C
Humidity: 57%
Barometer: 29.97 inHg , 1014.9 hPa
Clouds: Clear
Visibility: 10 miles , 16 km
2022/12/04 03:56 KASH 040356Z AUTO 28007KT 10SM CLR 06/M02 A2997 RMK AO2 SLP154 T00611022
 
KBOS - Boston, Massachusetts, USA
Distance from station: E 26mi, 42km
Updated: Sat, 03-Dec-2022 10:54pm EST
Clear
Clear
 Wind from W
Wind: W 12 mph , 19 km/h, Gust: 23 mph , 37 km/h
Temperature: 45°F , 7°C
Wind Chill: 39°F , 4°C
Dew Point: 28°F , -2°C
Humidity: 53%
Barometer: 29.98 inHg , 1015.2 hPa
Clouds: Clear
Visibility: 10 miles , 16 km
2022/12/04 03:54 KBOS 040354Z 28010G20KT 10SM CLR 07/M02 A2998 RMK AO2 PK WND 28029/0311 SLP153 T00671017 $
KLWM - Lawrence, Massachusetts, USA
Distance from station: NE 29mi, 47km
Updated: Sat, 03-Dec-2022 10:54pm EST
Clear
Clear
 Wind from W
Wind: W 14 mph , 22 km/h, Gust: 20 mph , 31 km/h
Temperature: 43°F , 6°C
Wind Chill: 36°F , 2°C
Dew Point: 28°F , -2°C
Humidity: 57%
Barometer: 29.97 inHg , 1014.9 hPa
Clouds: Clear
Visibility: 10 miles , 16 km
2022/12/04 03:54 KLWM 040354Z AUTO 27012G17KT 10SM CLR 06/M02 A2997 RMK AO2 SLP150 T00611022
 
KBVY - Beverly, Massachusetts, USA
Distance from station: ENE 33mi, 54km
Updated: Sat, 03-Dec-2022 10:53pm EST
Clear
Clear
 Wind from W
Wind: W 10 mph , 17 km/h, Gust: 20 mph , 31 km/h
Temperature: 43°F , 6°C
Wind Chill: 37°F , 3°C
Dew Point: 28°F , -2°C
Humidity: 57%
Barometer: 29.95 inHg , 1014.2 hPa
Clouds: Clear
Visibility: 10 miles , 16 km
2022/12/04 03:53 KBVY 040353Z AUTO 26009G17KT 10SM CLR 06/M02 A2995 RMK AO2 SLP139 T00561017
KSFZ - Pawtucket, Rhode Island, USA
Distance from station: S 34mi, 54km
Updated: Sat, 03-Dec-2022 10:56pm EST
Clear
Clear
 Wind from NW
Wind: NW 13 mph , 20 km/h, Gust: 18 mph , 30 km/h
Temperature: 41°F , 5°C
Wind Chill: 34°F , 1°C
Dew Point: 28°F , -2°C
Humidity: 61%
Barometer: 30.00 inHg , 1015.9 hPa
Clouds: Clear
Visibility: 10 miles , 16 km
2022/12/04 03:56 KSFZ 040356Z AUTO 31011G16KT 10SM CLR 05/M02 A3000 RMK AO2 SLP160 T00501022
 
KAFN - Jaffrey, New Hampshire, USA
Distance from station: NW 36mi, 59km
Updated: Sat, 03-Dec-2022 10:52pm EST
Clear
Clear
 Wind from varies
Wind: varies 3 mph , 6 km/h, Gust: 22 mph , 35 km/h
Temperature: 39°F , 4°C
Dew Point: 27°F , -3°C
Humidity: 61%
Barometer: 29.97 inHg , 1014.9 hPa
Clouds: Clear
Visibility: 10 miles , 16 km
2022/12/04 03:52 KAFN 040352Z AUTO VRB03G19KT 10SM CLR 04/M03 A2997 RMK AO2 SLP159 T00441033
KMHT - Manchester, New Hampshire, USA
Distance from station: N 37mi, 59km
Updated: Sat, 03-Dec-2022 10:53pm EST
Few Clouds
Few Clouds
 Wind from W
Wind: W 10 mph , 17 km/h
Temperature: 43°F , 6°C
Wind Chill: 37°F , 3°C
Dew Point: 28°F , -2°C
Humidity: 57%
Barometer: 29.94 inHg , 1013.9 hPa
Clouds: Few Clouds
Visibility: 10 miles , 16 km
Cloud details: Few Clouds 4000 ft
2022/12/04 03:53 KMHT 040353Z 27009KT 10SM FEW040 06/M02 A2994 RMK AO2 SLP155 T00611022
 
KORE - Orange, Massachusetts, USA
Distance from station: WNW 40mi, 65km
Updated: Sat, 03-Dec-2022 10:52pm EST
Clear
Clear
 Wind from WNW
Wind: WNW 13 mph , 20 km/h, Gust: 24 mph , 39 km/h
Temperature: 39°F , 4°C
Wind Chill: 31°F , -1°C
Dew Point: 25°F , -4°C
Humidity: 56%
Barometer: 30.03 inHg , 1016.9 hPa
Clouds: Clear
Visibility: 10 miles , 16 km
2022/12/04 03:52 KORE 040352Z AUTO 29011G21KT 10SM CLR 04/M04 A3003 RMK AO2 SLP171 T00441044
KTAN - Taunton, Massachusetts, USA
Distance from station: SE 45mi, 72km
Updated: Sat, 03-Dec-2022 10:52pm EST

 
Barometer: 29.99 inHg , 1015.6 hPa
2022/12/04 03:52 KTAN 040352Z AUTO A2999 RMK AO2 SLPNO PWINO FZRANO TSNO $
 
KPVD - Providence/Green, Rhode Island, USA
Distance from station: S 48mi, 77km
Updated: Sat, 03-Dec-2022 10:51pm EST
Few Clouds
Few Clouds
 Wind from NW
Wind: NW 10 mph , 17 km/h
Temperature: 45°F , 7°C
Wind Chill: 40°F , 4°C
Dew Point: 30°F , -1°C
Humidity: 57%
Barometer: 30.01 inHg , 1016.3 hPa
Clouds: Few Clouds
Visibility: 10 miles , 16 km
Cloud details: Few Clouds 5000 ft
2022/12/04 03:51 KPVD 040351Z 31009KT 10SM FEW050 07/M01 A3001 RMK AO2 SLP162 T00671006
KGHG - Marshfield, Massachusetts, USA
Distance from station: ESE 49mi, 79km
Updated: Sat, 03-Dec-2022 10:55pm EST

 Wind from WNW
Wind: WNW 15 mph , 24 km/h, Gust: 30 mph , 48 km/h
Temperature: 45°F , 7°C
Wind Chill: 38°F , 3°C
Dew Point: 30°F , -1°C
Humidity: 57%
Barometer: 29.98 inHg , 1015.2 hPa
Visibility: 10 miles , 16 km
2022/12/04 03:55 KGHG 040355Z AUTO 29013G26KT 260V330 10SM 07/M01 A2998 RMK AO2
 
KEEN - Keene/Dillant, New Hampshire, USA
Distance from station: NW 50mi, 81km
Updated: Sat, 03-Dec-2022 10:56pm EST
Few Clouds
Few Clouds
 Wind from NW
Wind: NW 13 mph , 20 km/h, Gust: 21 mph , 33 km/h
Temperature: 41°F , 5°C
Wind Chill: 34°F , 1°C
Dew Point: 25°F , -4°C
Humidity: 53%
Clouds: Few Clouds
Visibility: 10 miles , 16 km
Cloud details: Few Clouds 5000 ft
2022/12/04 03:56 KEEN 040356Z AUTO 31011G18KT 10SM FEW050 05/M04 RMK AO2 SLPNO T00501039 $